Weather History for Bennettsville, SC

Change the Weather History Date:

Friday, November 9, 2012

  Actual Average (KFLO) Record (KFLO)
Temperature  
Mean Temperature 50 °F 57 °F  
Max Temperature 69 °F 69 °F 85 °F (1975)
Min Temperature 30 °F 46 °F 22 °F (1967)
Degree Days  
Heating Degree Days 16 8  
Month to date heating degree days 67  
Since 1 July heating degree days 184  
Cooling Degree Days 0 1  
Month to date cooling degree days 9  
Year to date cooling degree days 2051  
Moisture  
Dew Point 33 °F    
Average Humidity 66    
Maximum Humidity 100    
Minimum Humidity 21    
Precipitation  
Precipitation 0.00 in 0.09 in 2.35 in (1991)
Month to date precipitation 0.79  
Year to date precipitation 38.02  
Sea Level Pressure  
Sea Level Pressure 30.22 in    
Wind  
Wind Speed 2 mph (West)    
Max Wind Speed 8 mph    
Max Gust Speed -    
Visibility 10 miles    
Events      
T = Trace of Precipitation, MM = Missing Value Source: NWS Daily Summary

Daily Weather History Graph

Daily Weather History Graph

Search for Another Location

Airport:

Trip Planner

Search our weather history database for the weather conditions in past years. The results will help you decide how hot, cold, wet, or windy it might be!

Date:

Astronomy

Nov. 09, 2012 Rise Set
Actual Time 6:47 AM EST 5:17 PM EST
Civil Twilight 6:20 AM EST 5:44 PM EST
Nautical Twilight 5:50 AM EST 6:14 PM EST
Astronomical Twilight 5:20 AM EST 6:44 PM EST
Moon 1:55 AM EST (11/9) 2:20 PM EST (11/9)
Length of Visible Light 11h 23m
Length of Day
10h 30m
Waning Crescent, 23% of the Moon is Illuminated
Nov 9
Waning Crescent
Nov 13
New
Nov 20
First Quarter
Nov 28
Full
Dec 6
Last Quarter

Hourly Weather History & Observations

Time (EST) Temp. Windchill Dew Point Humidity Pressure Visibility Wind Dir Wind Speed Gust Speed Precip Events Conditions
12:15 AM 32.0 °F - 32.0 °F 100% 30.14 in 10.0 mi Calm Calm - N/A   Clear
12:35 AM 32.0 °F 27.5 °F 32.0 °F 100% 30.14 in 10.0 mi WNW 4.6 mph - N/A   Clear
12:55 AM 32.0 °F 28.7 °F 32.0 °F 100% 30.14 in 10.0 mi WNW 3.5 mph - N/A   Clear
1:15 AM 33.8 °F 28.6 °F 32.0 °F 93% 30.14 in 10.0 mi West 5.8 mph - N/A   Clear
1:35 AM 33.8 °F 29.6 °F 32.0 °F 93% 30.14 in 10.0 mi WNW 4.6 mph - N/A   Clear
1:55 AM 33.8 °F 29.6 °F 32.0 °F 93% 30.14 in 10.0 mi NW 4.6 mph - N/A   Clear
2:15 AM 33.8 °F - 32.0 °F 93% 30.15 in 10.0 mi Calm Calm - N/A   Clear
2:35 AM 33.8 °F 30.8 °F 32.0 °F 93% 30.16 in 10.0 mi West 3.5 mph - N/A   Clear
2:55 AM 33.8 °F - 32.0 °F 93% 30.16 in 10.0 mi Calm Calm - N/A   Clear
3:15 AM 33.8 °F 30.8 °F 32.0 °F 93% 30.16 in 10.0 mi West 3.5 mph - N/A   Clear
3:35 AM 32.0 °F - 32.0 °F 100% 30.17 in 10.0 mi Calm Calm - N/A   Clear
3:55 AM 32.0 °F - 32.0 °F 100% 30.17 in 10.0 mi Calm Calm - N/A   Clear
4:15 AM 30.2 °F - 30.2 °F 100% 30.18 in 10.0 mi Calm Calm - N/A   Clear
4:35 AM 32.0 °F - 32.0 °F 100% 30.19 in 10.0 mi Calm Calm - N/A   Clear
4:55 AM 30.2 °F - 30.2 °F 100% 30.19 in 10.0 mi Calm Calm - N/A   Clear
5:15 AM 32.0 °F - 32.0 °F 100% 30.20 in 10.0 mi Calm Calm - N/A   Clear
5:35 AM 32.0 °F - 32.0 °F 100% 30.20 in 10.0 mi Calm Calm - N/A   Clear
5:55 AM 32.0 °F - 32.0 °F 100% 30.21 in 7.0 mi Calm Calm - N/A   Clear
6:15 AM 30.2 °F - 30.2 °F 100% 30.21 in 7.0 mi Calm Calm - N/A   Clear
6:55 AM 30.2 °F - 30.2 °F 100% 30.23 in 7.0 mi Calm Calm - N/A   Clear
7:15 AM 32.0 °F - 32.0 °F 100% 30.24 in 10.0 mi Calm Calm - N/A   Clear
7:35 AM 35.6 °F - 33.8 °F 93% 30.24 in 10.0 mi Calm Calm - N/A   Clear
7:55 AM 37.4 °F - 33.8 °F 87% 30.25 in 10.0 mi Calm Calm - N/A   Clear
8:35 AM 44.6 °F - 33.8 °F 66% 30.26 in 10.0 mi Calm Calm - N/A   Clear
8:55 AM 46.4 °F - 33.8 °F 62% 30.26 in 10.0 mi Calm Calm - N/A   Clear
9:15 AM 48.2 °F - 33.8 °F 58% 30.27 in 10.0 mi Calm Calm - N/A   Clear
9:35 AM 50.0 °F - 32.0 °F 50% 30.27 in 10.0 mi Calm Calm - N/A   Clear
9:55 AM 53.6 °F - 32.0 °F 44% 30.27 in 10.0 mi Calm Calm - N/A   Clear
10:15 AM 55.4 °F - 32.0 °F 41% 30.28 in 10.0 mi ESE 3.5 mph - N/A   Clear
10:35 AM 57.2 °F - 33.8 °F 41% 30.27 in 4.0 mi ESE 3.5 mph - N/A   Haze
10:55 AM 60.8 °F - 33.8 °F 36% 30.27 in 10.0 mi South 3.5 mph - N/A   Clear
11:15 AM 60.8 °F - 32.0 °F 34% 30.27 in 10.0 mi Calm Calm - N/A   Clear
11:55 AM 62.6 °F - 32.0 °F 32% 30.25 in 7.0 mi Calm Calm - N/A   Clear
12:15 PM 64.4 °F - 32.0 °F 30% 30.24 in 10.0 mi Calm Calm - N/A   Clear
12:35 PM 66.2 °F - 32.0 °F 28% 30.23 in 10.0 mi Calm Calm - N/A   Clear
12:55 PM 68.0 °F - 32.0 °F 26% 30.22 in 10.0 mi WSW 5.8 mph - N/A   Clear
1:15 PM 68.0 °F - 32.0 °F 26% 30.22 in 10.0 mi WSW 5.8 mph - N/A   Clear
1:35 PM 68.0 °F - 32.0 °F 26% 30.21 in 10.0 mi Calm Calm - N/A   Clear
1:55 PM 69.8 °F - 32.0 °F 25% 30.21 in 10.0 mi WSW 4.6 mph - N/A   Clear
2:15 PM 69.8 °F - 32.0 °F 25% 30.20 in 10.0 mi WNW 6.9 mph - N/A   Clear
2:35 PM 69.8 °F - 32.0 °F 25% 30.20 in 10.0 mi WNW 8.1 mph - N/A   Clear
2:55 PM 69.8 °F - 30.2 °F 23% 30.19 in 10.0 mi WSW 5.8 mph - N/A   Clear
3:15 PM 69.8 °F - 30.2 °F 23% 30.19 in 10.0 mi West 6.9 mph - N/A   Clear
3:35 PM 69.8 °F - 28.4 °F 21% 30.19 in 10.0 mi West 5.8 mph - N/A   Clear
3:55 PM 69.8 °F - 30.2 °F 23% 30.19 in 10.0 mi WSW 3.5 mph - N/A   Clear
4:15 PM 69.8 °F - 30.2 °F 23% 30.19 in 10.0 mi West 3.5 mph - N/A   Clear
4:35 PM 68.0 °F - 30.2 °F 24% 30.20 in 10.0 mi WNW 3.5 mph - N/A   Clear
4:55 PM 68.0 °F - 30.2 °F 24% 30.20 in 10.0 mi Calm Calm - N/A   Clear
5:15 PM 62.6 °F - 32.0 °F 32% 30.20 in 10.0 mi Calm Calm - N/A   Clear
5:35 PM 59.0 °F - 32.0 °F 36% 30.20 in 10.0 mi Calm Calm - N/A   Clear
5:55 PM 53.6 °F - 33.8 °F 47% 30.21 in 10.0 mi Calm Calm - N/A   Clear
6:15 PM 51.8 °F - 33.8 °F 50% 30.21 in 10.0 mi Calm Calm - N/A   Clear
6:35 PM 50.0 °F - 33.8 °F 54% 30.22 in 10.0 mi Calm Calm - N/A   Clear
6:55 PM 48.2 °F - 33.8 °F 58% 30.22 in 10.0 mi Calm Calm - N/A   Clear
7:15 PM 46.4 °F - 35.6 °F 66% 30.23 in 10.0 mi Calm Calm - N/A   Clear
7:35 PM 44.6 °F - 33.8 °F 66% 30.23 in 10.0 mi Calm Calm - N/A   Clear
7:55 PM 44.6 °F - 35.6 °F 71% 30.23 in 10.0 mi Calm Calm - N/A   Clear
8:15 PM 41.0 °F - 33.8 °F 76% 30.23 in 10.0 mi Calm Calm - N/A   Clear
8:35 PM 42.8 °F - 33.8 °F 70% 30.24 in 10.0 mi Calm Calm - N/A   Clear
8:55 PM 41.0 °F - 33.8 °F 76% 30.24 in 10.0 mi Calm Calm - N/A   Clear
9:15 PM 41.0 °F - 33.8 °F 76% 30.25 in 10.0 mi Calm Calm - N/A   Clear
9:35 PM 41.0 °F - 35.6 °F 81% 30.25 in 10.0 mi Calm Calm - N/A   Clear
9:55 PM 41.0 °F - 33.8 °F 76% 30.25 in 10.0 mi Calm Calm - N/A   Clear
10:15 PM 39.2 °F - 35.6 °F 87% 30.26 in 10.0 mi Calm Calm - N/A   Clear
10:35 PM 39.2 °F - 35.6 °F 87% 30.26 in 10.0 mi Calm Calm - N/A   Clear
10:55 PM 37.4 °F - 33.8 °F 87% 30.26 in 10.0 mi Calm Calm - N/A   Clear
11:15 PM 37.4 °F - 35.6 °F 93% 30.26 in 10.0 mi Calm Calm - N/A   Clear
11:35 PM 37.4 °F - 33.8 °F 87% 30.27 in 10.0 mi Calm Calm - N/A   Clear
11:55 PM 37.4 °F - 33.8 °F 87% 30.27 in 10.0 mi Calm Calm - N/A   Clear